Black Oak, Arkansas
Current Conditions -  °F | °C
As of 11:53 PM on Wednesday 22 Oct 2014 (Local Time) from KJBR Reporting Station
Clear Clear  
Wind Chill: 51°   Ceiling: Unl
Heat Index: 51°   Visibility: 10mi
Dew Point: 44°   Wind: 6mph
Humidity: 77%   Direction: 20°NNE
Pressure: 30.21"   Gusts: NA
Location:  35.84°N, 90.37°W
Report Text: KJBR 230453Z AUTO 02005KT 10SM CLR 11/07 A3021 RMK AO2 SLP228 T01060067
Loading
Personal Weather Stations






























Interactive Weather Map
Tropical Storm Tracking
New forecast layout! Learn more

10-Day Weather Forecast

Advertisements
Track Severe Weather on mobile